createdAt,value
2023-04-19T00:00:18.311Z,25.80
2023-04-19T00:01:18.294Z,26.30
2023-04-19T00:02:18.410Z,25.70
2023-04-19T00:03:18.437Z,26.50
2023-04-19T00:04:18.547Z,24.90
2023-04-19T00:05:18.270Z,26.10
2023-04-19T00:06:18.252Z,27.50
2023-04-19T00:07:18.265Z,25.70
2023-04-19T00:08:18.232Z,29.90
2023-04-19T00:09:18.230Z,25.40
2023-04-19T00:10:18.223Z,25.90
2023-04-19T00:11:18.217Z,28.50
2023-04-19T00:12:18.239Z,26.00
2023-04-19T00:13:18.199Z,26.90
2023-04-19T00:14:18.449Z,27.60
2023-04-19T00:15:18.187Z,25.70
2023-04-19T00:16:18.221Z,26.50
2023-04-19T00:17:18.198Z,25.50
2023-04-19T00:18:18.160Z,24.80
2023-04-19T00:19:18.143Z,28.40
2023-04-19T00:20:18.152Z,27.00
2023-04-19T00:21:18.148Z,24.90
2023-04-19T00:22:18.165Z,30.50
2023-04-19T00:23:18.126Z,24.80
2023-04-19T00:24:18.129Z,27.10
2023-04-19T00:25:18.117Z,28.30
2023-04-19T00:26:18.120Z,26.60
2023-04-19T00:27:18.122Z,23.70
2023-04-19T00:28:18.085Z,24.30
2023-04-19T00:29:18.086Z,24.70
2023-04-19T00:30:18.073Z,22.30
2023-04-19T00:31:18.104Z,24.10
2023-04-19T00:32:18.076Z,24.40
2023-04-19T00:33:18.044Z,25.20
2023-04-19T00:34:18.043Z,25.90
2023-04-19T00:35:19.038Z,25.60
2023-04-19T00:36:18.021Z,27.20
2023-04-19T00:37:18.043Z,27.50
2023-04-19T00:38:18.007Z,27.00
2023-04-19T00:39:18.004Z,29.00
2023-04-19T00:40:17.993Z,28.50
2023-04-19T00:41:17.978Z,31.40
2023-04-19T00:42:17.999Z,26.50
2023-04-19T00:43:17.974Z,26.60
2023-04-19T00:44:17.954Z,26.80
2023-04-19T00:45:17.943Z,26.90
2023-04-19T00:46:18.012Z,25.60
2023-04-19T00:47:17.955Z,29.80
2023-04-19T00:48:17.933Z,28.60
2023-04-19T00:49:17.917Z,29.20
2023-04-19T00:50:17.918Z,30.60
2023-04-19T00:51:17.909Z,30.50
2023-04-19T00:52:17.937Z,30.30
2023-04-19T00:53:17.885Z,30.10
2023-04-19T00:54:17.882Z,29.10
2023-04-19T00:55:17.888Z,28.60
2023-04-19T00:56:17.871Z,26.00
2023-04-19T00:57:17.890Z,28.40
2023-04-19T00:58:17.874Z,28.30
2023-04-19T00:59:17.830Z,26.30
2023-04-19T01:00:18.834Z,27.20
2023-04-19T01:01:17.867Z,29.00
2023-04-19T01:02:17.905Z,27.40
2023-04-19T01:03:17.896Z,25.00
2023-04-19T01:04:18.008Z,26.40
2023-04-19T01:05:17.797Z,26.80
2023-04-19T01:06:17.796Z,27.00
2023-04-19T01:07:17.910Z,26.50
2023-04-19T01:08:17.776Z,25.70
2023-04-19T01:09:17.762Z,24.40
2023-04-19T01:10:17.758Z,27.30
2023-04-19T01:11:17.744Z,25.70
2023-04-19T01:12:17.761Z,29.10
2023-04-19T01:13:17.731Z,26.90
2023-04-19T01:14:17.876Z,27.20
2023-04-19T01:15:17.710Z,28.20
2023-04-19T01:16:17.774Z,26.00
2023-04-19T01:17:17.715Z,27.80
2023-04-19T01:18:17.701Z,27.90
2023-04-19T01:19:17.685Z,25.90
2023-04-19T01:20:17.679Z,27.50
2023-04-19T01:21:17.669Z,29.10
2023-04-19T01:22:17.691Z,31.60
2023-04-19T01:23:17.648Z,29.10
2023-04-19T01:24:17.753Z,27.50
2023-04-19T01:25:17.627Z,24.70
2023-04-19T01:26:17.616Z,28.80
2023-04-19T01:27:17.644Z,25.30
2023-04-19T01:28:17.612Z,25.90
2023-04-19T01:29:17.611Z,26.30
2023-04-19T01:30:17.593Z,26.60
2023-04-19T01:31:17.623Z,25.40
2023-04-19T01:32:17.606Z,27.80
2023-04-19T01:33:17.574Z,26.80
2023-04-19T01:34:17.567Z,27.20
2023-04-19T01:35:17.576Z,24.00
2023-04-19T01:36:17.553Z,24.50
2023-04-19T01:37:17.567Z,26.20
2023-04-19T01:38:17.531Z,27.20
2023-04-19T01:39:17.522Z,23.40
2023-04-19T01:40:17.513Z,27.10
2023-04-19T01:41:17.517Z,25.70
2023-04-19T01:42:17.569Z,22.50
2023-04-19T01:43:17.518Z,27.70
2023-04-19T01:44:17.579Z,25.00
2023-04-19T01:45:17.474Z,23.00
2023-04-19T01:46:17.549Z,25.40
2023-04-19T01:47:17.506Z,25.20
2023-04-19T01:48:17.458Z,23.30
2023-04-19T01:49:17.460Z,22.90
2023-04-19T01:50:17.455Z,23.10
2023-04-19T01:51:17.447Z,23.10
2023-04-19T01:52:17.462Z,25.60
2023-04-19T01:53:17.475Z,21.40
2023-04-19T01:54:17.612Z,19.30
2023-04-19T01:55:17.421Z,17.30
2023-04-19T01:56:17.403Z,15.60
2023-04-19T01:57:17.431Z,17.30
2023-04-19T01:58:17.388Z,15.90
2023-04-19T01:59:17.373Z,15.70
2023-04-19T02:00:17.366Z,14.50
2023-04-19T02:01:17.375Z,13.40
2023-04-19T02:02:17.410Z,16.20
2023-04-19T02:03:17.621Z,12.60
2023-04-19T02:04:17.665Z,12.60
2023-04-19T02:05:17.330Z,11.60
2023-04-19T02:06:17.326Z,11.70
2023-04-19T02:07:17.319Z,15.10
2023-04-19T02:08:17.334Z,14.60
2023-04-19T02:09:17.317Z,12.50
2023-04-19T02:10:17.293Z,12.00
2023-04-19T02:11:17.279Z,12.80
2023-04-19T02:12:17.281Z,13.50
2023-04-19T02:13:17.292Z,10.60
2023-04-19T02:14:17.473Z,13.00
2023-04-19T02:15:17.259Z,8.80
2023-04-19T02:16:17.291Z,10.30
2023-04-19T02:17:17.252Z,10.80
2023-04-19T02:18:17.257Z,12.20
2023-04-19T02:19:17.226Z,11.90
2023-04-19T02:20:17.241Z,12.00
2023-04-19T02:21:17.211Z,10.80
2023-04-19T02:22:17.216Z,12.10
2023-04-19T02:23:17.221Z,10.90
2023-04-19T02:24:17.491Z,9.10
2023-04-19T02:25:17.179Z,9.50
2023-04-19T02:26:17.175Z,10.00
2023-04-19T02:27:17.171Z,9.90
2023-04-19T02:28:17.179Z,8.90
2023-04-19T02:29:17.142Z,8.10
2023-04-19T02:30:17.141Z,7.90
2023-04-19T02:31:17.164Z,10.70
2023-04-19T02:32:18.124Z,7.40
2023-04-19T02:33:17.147Z,8.50
2023-04-19T02:34:17.371Z,9.00
2023-04-19T02:35:17.116Z,6.70
2023-04-19T02:36:17.093Z,7.60
2023-04-19T02:37:17.078Z,8.40
2023-04-19T02:38:17.102Z,9.00
2023-04-19T02:39:17.072Z,7.30
2023-04-19T02:40:17.061Z,7.10
2023-04-19T02:41:17.100Z,7.60
2023-04-19T02:42:17.049Z,9.20
2023-04-19T02:43:17.070Z,5.80
2023-04-19T02:44:17.185Z,7.30
2023-04-19T02:45:17.019Z,6.40
2023-04-19T02:46:17.035Z,7.10
2023-04-19T02:47:17.027Z,6.90
2023-04-19T02:48:16.994Z,7.90
2023-04-19T02:49:17.000Z,7.00
2023-04-19T02:50:16.980Z,7.70
2023-04-19T02:51:16.993Z,6.50
2023-04-19T02:52:17.006Z,8.70
2023-04-19T02:53:16.951Z,5.90
2023-04-19T02:54:17.135Z,5.40
2023-04-19T02:55:16.943Z,5.80
2023-04-19T02:56:16.935Z,6.70
2023-04-19T02:57:16.958Z,8.30
2023-04-19T02:58:16.911Z,6.30
2023-04-19T02:59:16.907Z,6.90
2023-04-19T03:00:16.896Z,6.30
2023-04-19T03:01:16.934Z,7.90
2023-04-19T03:02:16.898Z,5.90
2023-04-19T03:03:16.955Z,6.10
2023-04-19T03:04:17.111Z,6.50
2023-04-19T03:05:16.869Z,7.70
2023-04-19T03:06:17.860Z,5.80
2023-04-19T03:07:16.846Z,6.70
2023-04-19T03:08:16.863Z,6.40
2023-04-19T03:09:16.832Z,6.40
2023-04-19T03:10:16.829Z,6.30
2023-04-19T03:11:16.827Z,6.20
2023-04-19T03:12:16.801Z,6.00
2023-04-19T03:13:16.821Z,6.70
2023-04-19T03:14:16.963Z,7.50
2023-04-19T03:15:16.778Z,6.00
2023-04-19T03:16:16.832Z,6.50
2023-04-19T03:17:16.779Z,4.70
2023-04-19T03:18:16.781Z,7.00
2023-04-19T03:19:16.752Z,5.40
2023-04-19T03:20:16.741Z,5.90
2023-04-19T03:21:16.737Z,6.50
2023-04-19T03:22:16.720Z,4.60
2023-04-19T03:23:16.731Z,6.70
2023-04-19T03:24:16.875Z,6.90
2023-04-19T03:25:16.695Z,6.00
2023-04-19T03:26:16.691Z,4.50
2023-04-19T03:27:16.692Z,5.00
2023-04-19T03:28:16.706Z,7.30
2023-04-19T03:29:16.671Z,7.20
2023-04-19T03:30:16.664Z,6.70
2023-04-19T03:31:16.686Z,4.80
2023-04-19T03:32:16.641Z,4.80
2023-04-19T03:33:16.673Z,5.40
2023-04-19T03:34:16.780Z,5.40
2023-04-19T03:35:16.614Z,6.50
2023-04-19T03:36:16.625Z,6.90
2023-04-19T03:37:16.611Z,4.90
2023-04-19T03:38:16.644Z,4.30
2023-04-19T03:39:16.588Z,5.10
2023-04-19T03:40:16.586Z,6.10
2023-04-19T03:41:16.571Z,4.10
2023-04-19T03:42:16.572Z,4.90
2023-04-19T03:43:16.585Z,5.30
2023-04-19T03:44:16.728Z,5.70
2023-04-19T03:45:16.543Z,4.90
2023-04-19T03:46:16.573Z,5.10
2023-04-19T03:47:16.521Z,6.10
2023-04-19T03:48:16.541Z,6.60
2023-04-19T03:49:16.514Z,6.40
2023-04-19T03:50:16.499Z,4.80
2023-04-19T03:51:16.488Z,6.60
2023-04-19T03:52:16.487Z,5.80
2023-04-19T03:53:16.502Z,5.40
2023-04-19T03:54:16.638Z,4.10
2023-04-19T03:55:16.481Z,5.20
2023-04-19T03:56:16.446Z,4.70
2023-04-19T03:57:16.445Z,6.20
2023-04-19T03:58:16.461Z,4.60
2023-04-19T03:59:16.426Z,6.80
2023-04-19T04:00:16.420Z,5.00
2023-04-19T04:01:17.412Z,4.90
2023-04-19T04:02:16.484Z,5.90
2023-04-19T04:03:16.696Z,5.00
2023-04-19T04:04:16.701Z,5.30
2023-04-19T04:05:16.460Z,4.50
2023-04-19T04:06:16.365Z,4.70
2023-04-19T04:07:16.369Z,3.90
2023-04-19T04:08:16.390Z,5.40
2023-04-19T04:09:16.342Z,5.50
2023-04-19T04:10:16.340Z,4.40
2023-04-19T04:11:16.326Z,5.60
2023-04-19T04:12:16.330Z,4.40
2023-04-19T04:13:16.345Z,4.90
2023-04-19T04:14:16.432Z,4.30
2023-04-19T04:15:16.304Z,4.90
2023-04-19T04:16:16.320Z,6.10
2023-04-19T04:17:16.284Z,5.70
2023-04-19T04:18:16.322Z,6.00
2023-04-19T04:19:16.267Z,8.00
2023-04-19T04:20:16.250Z,5.80
2023-04-19T04:21:16.249Z,6.10
2023-04-19T04:22:16.238Z,5.00
2023-04-19T04:23:16.345Z,6.10
2023-04-19T04:24:16.355Z,5.70
2023-04-19T04:25:16.211Z,4.30
2023-04-19T04:26:16.204Z,4.80
2023-04-19T04:27:16.222Z,5.10
2023-04-19T04:28:16.228Z,4.70
2023-04-19T04:29:16.192Z,4.90
2023-04-19T04:30:16.188Z,5.30
2023-04-19T04:31:16.222Z,4.50
2023-04-19T04:32:16.176Z,5.50
2023-04-19T04:33:16.195Z,6.30
2023-04-19T04:34:16.472Z,4.60
2023-04-19T04:35:16.142Z,5.90
2023-04-19T04:36:16.137Z,6.20
2023-04-19T04:37:16.137Z,5.70
2023-04-19T04:38:23.985Z,5.00
2023-04-19T04:39:18.253Z,3.70
2023-04-19T04:40:16.128Z,5.50
2023-04-19T04:41:16.144Z,5.40
2023-04-19T04:42:16.113Z,5.50
2023-04-19T04:43:16.161Z,5.50
2023-04-19T04:44:16.084Z,5.70
2023-04-19T04:45:16.088Z,6.90
2023-04-19T04:46:16.108Z,6.10
2023-04-19T04:47:16.069Z,5.00
2023-04-19T04:48:16.075Z,4.60
2023-04-19T04:49:16.045Z,4.90
2023-04-19T04:50:16.035Z,5.00
2023-04-19T04:51:16.024Z,4.60
2023-04-19T04:52:16.027Z,7.00
2023-04-19T04:53:16.045Z,6.60
2023-04-19T04:54:16.130Z,8.40
2023-04-19T04:55:16.015Z,5.90
2023-04-19T04:56:16.016Z,7.00
2023-04-19T04:57:15.984Z,5.50
2023-04-19T04:58:16.547Z,6.40
2023-04-19T04:59:15.963Z,5.40
2023-04-19T05:00:15.952Z,7.40
2023-04-19T05:01:16.047Z,6.50
2023-04-19T05:02:15.973Z,7.50
2023-04-19T05:03:15.987Z,7.60
2023-04-19T05:04:16.085Z,6.90
2023-04-19T05:05:15.917Z,6.10
2023-04-19T05:06:15.912Z,7.00
2023-04-19T05:07:15.896Z,8.50
2023-04-19T05:08:15.916Z,7.80
2023-04-19T05:09:15.885Z,7.90
2023-04-19T05:10:15.877Z,7.50
2023-04-19T05:11:15.931Z,5.90
2023-04-19T05:12:16.863Z,6.60
2023-04-19T05:13:16.009Z,8.20
2023-04-19T05:14:16.075Z,5.70
2023-04-19T05:15:15.870Z,8.40
2023-04-19T05:16:15.852Z,7.70
2023-04-19T05:17:15.811Z,6.30
2023-04-19T05:18:15.850Z,8.80
2023-04-19T05:19:15.804Z,6.70
2023-04-19T05:20:15.802Z,8.40
2023-04-19T05:21:15.802Z,7.10
2023-04-19T05:22:15.776Z,7.00
2023-04-19T05:23:15.770Z,7.70
2023-04-19T05:24:16.025Z,6.30
2023-04-19T05:25:15.753Z,6.80
2023-04-19T05:26:15.748Z,6.40
2023-04-19T05:27:15.737Z,9.00
2023-04-19T05:28:15.741Z,8.00
2023-04-19T05:29:15.746Z,6.80
2023-04-19T05:30:15.725Z,6.90
2023-04-19T05:31:15.721Z,7.10
2023-04-19T05:32:15.694Z,6.50
2023-04-19T05:33:15.686Z,6.80
2023-04-19T05:34:15.960Z,8.10
2023-04-19T05:35:15.673Z,6.80
2023-04-19T05:36:15.669Z,7.40
2023-04-19T05:37:15.657Z,7.20
2023-04-19T05:38:15.651Z,10.00
2023-04-19T05:39:15.683Z,7.30
2023-04-19T05:40:15.636Z,6.40
2023-04-19T05:41:15.622Z,8.50
2023-04-19T05:42:16.649Z,10.20
2023-04-19T05:43:15.611Z,8.70
2023-04-19T05:44:15.850Z,16.20
2023-04-19T05:45:15.626Z,9.70
2023-04-19T05:46:15.611Z,7.10
2023-04-19T05:47:15.581Z,8.60
2023-04-19T05:48:15.568Z,6.20
2023-04-19T05:49:16.628Z,8.60
2023-04-19T05:50:15.583Z,7.70
2023-04-19T05:51:15.568Z,7.80
2023-04-19T05:52:15.550Z,6.70
2023-04-19T05:53:15.539Z,6.90
2023-04-19T05:54:15.948Z,7.60
2023-04-19T05:55:15.520Z,6.50
2023-04-19T05:56:16.529Z,8.20
2023-04-19T05:57:15.506Z,8.00
2023-04-19T05:58:15.505Z,7.70
2023-04-19T05:59:15.521Z,10.10
2023-04-19T06:00:15.490Z,7.70
2023-04-19T06:01:15.480Z,8.00
2023-04-19T06:02:15.542Z,8.70
2023-04-19T06:03:15.778Z,9.40
2023-04-19T06:04:16.031Z,7.30
2023-04-19T06:05:15.516Z,10.70
2023-04-19T06:06:15.529Z,7.50
2023-04-19T06:07:27.409Z,8.40
2023-04-19T06:08:17.442Z,7.70
2023-04-19T06:09:15.437Z,7.40
2023-04-19T06:10:15.414Z,7.00
2023-04-19T06:11:24.887Z,8.10
2023-04-19T06:12:17.382Z,8.50
2023-04-19T06:13:15.397Z,8.60
2023-04-19T06:14:15.641Z,9.10
2023-04-19T06:15:15.386Z,7.20
2023-04-19T06:16:15.401Z,8.10
2023-04-19T06:17:15.350Z,9.10
2023-04-19T06:18:19.698Z,8.70
2023-04-19T06:19:16.358Z,8.10
2023-04-19T06:20:15.333Z,7.60
2023-04-19T06:21:15.322Z,8.40
2023-04-19T06:22:15.311Z,11.10
2023-04-19T06:23:15.452Z,9.30
2023-04-19T06:24:15.499Z,12.10
2023-04-19T06:25:15.283Z,8.90
2023-04-19T06:26:15.275Z,8.00
2023-04-19T06:27:15.264Z,8.60
2023-04-19T06:28:15.264Z,8.00
2023-04-19T06:29:15.278Z,9.30
2023-04-19T06:30:15.278Z,10.00
2023-04-19T06:31:15.255Z,10.30
2023-04-19T06:32:15.231Z,10.60
2023-04-19T06:33:15.222Z,9.50
2023-04-19T06:34:15.578Z,10.20
2023-04-19T06:35:15.220Z,9.90
2023-04-19T06:36:15.197Z,10.90
2023-04-19T06:37:15.200Z,11.40
2023-04-19T06:38:15.189Z,10.90
2023-04-19T06:39:15.203Z,9.00
2023-04-19T06:40:15.170Z,11.10
2023-04-19T06:41:15.170Z,11.60
2023-04-19T06:42:15.148Z,8.10
2023-04-19T06:43:15.145Z,10.20
2023-04-19T06:44:15.491Z,10.20
2023-04-19T06:45:15.131Z,10.00
2023-04-19T06:46:15.157Z,9.40
2023-04-19T06:47:15.142Z,9.40
2023-04-19T06:48:15.112Z,9.30
2023-04-19T06:49:15.131Z,12.00
2023-04-19T06:50:15.089Z,11.00
2023-04-19T06:51:15.093Z,10.30
2023-04-19T06:52:15.075Z,9.20
2023-04-19T06:53:15.074Z,8.70
2023-04-19T06:54:15.099Z,9.20
2023-04-19T06:55:15.050Z,8.90
2023-04-19T06:56:15.057Z,10.00
2023-04-19T06:57:15.057Z,11.60
2023-04-19T06:58:15.038Z,10.70
2023-04-19T06:59:15.050Z,9.60
2023-04-19T07:00:15.024Z,7.20
2023-04-19T07:01:15.046Z,8.40
2023-04-19T07:02:15.064Z,8.70
2023-04-19T07:03:15.178Z,9.00
2023-04-19T07:04:15.726Z,9.10
2023-04-19T07:05:14.977Z,9.70
2023-04-19T07:06:14.958Z,8.80
2023-04-19T07:07:14.969Z,9.20
2023-04-19T07:08:14.948Z,9.80
2023-04-19T07:09:14.962Z,9.30
2023-04-19T07:10:14.930Z,10.30
2023-04-19T07:11:14.918Z,9.60
2023-04-19T07:12:14.913Z,10.80
2023-04-19T07:13:14.907Z,8.30
2023-04-19T07:14:15.252Z,9.30
2023-04-19T07:15:14.897Z,11.40
2023-04-19T07:16:14.986Z,8.10
2023-04-19T07:17:14.872Z,9.60
2023-04-19T07:18:14.868Z,10.70
2023-04-19T07:19:14.891Z,7.30
2023-04-19T07:20:14.867Z,8.80
2023-04-19T07:21:14.852Z,8.40
2023-04-19T07:22:15.269Z,8.20
2023-04-19T07:23:15.824Z,8.00
2023-04-19T07:24:14.958Z,7.80
2023-04-19T07:25:15.877Z,7.40
2023-04-19T07:26:14.801Z,8.00
2023-04-19T07:27:15.019Z,6.80
2023-04-19T07:28:14.781Z,6.80
2023-04-19T07:29:14.773Z,7.70
2023-04-19T07:30:14.789Z,6.90
2023-04-19T07:31:14.763Z,6.90
2023-04-19T07:32:14.785Z,7.20
2023-04-19T07:33:14.779Z,6.70
2023-04-19T07:34:14.985Z,8.80
2023-04-19T07:35:14.841Z,5.10
2023-04-19T07:36:14.721Z,5.60
2023-04-19T07:37:14.717Z,3.80
2023-04-19T07:38:14.697Z,7.00
2023-04-19T07:39:14.695Z,4.90
2023-04-19T07:40:14.734Z,4.80
2023-04-19T07:41:14.684Z,6.20
2023-04-19T07:42:14.675Z,5.00
2023-04-19T07:43:14.660Z,5.60
2023-04-19T07:44:15.074Z,5.40
2023-04-19T07:45:14.665Z,5.20
2023-04-19T07:46:14.655Z,5.70
2023-04-19T07:47:14.633Z,5.60
2023-04-19T07:48:14.627Z,4.60
2023-04-19T07:49:14.607Z,4.60
2023-04-19T07:50:14.630Z,4.80
2023-04-19T07:51:14.601Z,5.30
2023-04-19T07:52:14.589Z,4.20
2023-04-19T07:53:14.580Z,2.80
2023-04-19T07:54:14.940Z,3.40
2023-04-19T07:55:14.592Z,3.10
2023-04-19T07:56:14.555Z,4.20
2023-04-19T07:57:14.545Z,2.70
2023-04-19T07:58:14.535Z,2.90
2023-04-19T07:59:14.524Z,3.80
2023-04-19T08:00:14.553Z,5.70
2023-04-19T08:01:14.528Z,3.30
2023-04-19T08:02:14.654Z,5.30
2023-04-19T08:03:14.639Z,3.10
2023-04-19T08:04:14.660Z,3.60
2023-04-19T08:05:15.623Z,3.00
2023-04-19T08:06:14.473Z,4.00
2023-04-19T08:07:14.466Z,2.00
2023-04-19T08:08:14.452Z,4.00
2023-04-19T08:09:14.528Z,2.00
2023-04-19T08:10:14.479Z,2.50
2023-04-19T08:11:14.537Z,2.40
2023-04-19T08:12:23.101Z,2.90
2023-04-19T08:13:16.412Z,3.20
2023-04-19T08:14:27.120Z,3.20
2023-04-19T08:16:41.874Z,2.70
2023-04-19T08:17:23.830Z,3.80
2023-04-19T08:18:16.417Z,4.30
2023-04-19T08:19:14.374Z,3.40
2023-04-19T08:20:14.399Z,3.60
2023-04-19T08:21:14.357Z,4.00
2023-04-19T08:22:14.349Z,2.60
2023-04-19T08:23:21.530Z,4.10
2023-04-19T08:24:16.504Z,4.50
2023-04-19T08:25:14.355Z,4.90
2023-04-19T08:26:14.317Z,3.80
2023-04-19T08:27:14.313Z,3.60
2023-04-19T08:28:14.307Z,3.60
2023-04-19T08:29:14.303Z,2.30
2023-04-19T08:30:14.313Z,2.40
2023-04-19T08:31:14.287Z,3.00
2023-04-19T08:32:14.323Z,3.00
2023-04-19T08:33:14.288Z,2.40
2023-04-19T08:34:14.280Z,3.90
2023-04-19T08:35:14.279Z,2.80
2023-04-19T08:36:17.053Z,2.00
2023-04-19T08:37:15.239Z,1.70
2023-04-19T08:38:14.236Z,2.00
2023-04-19T08:39:24.810Z,3.20
2023-04-19T08:40:16.246Z,2.80
2023-04-19T08:41:14.213Z,2.20
2023-04-19T08:42:32.474Z,2.20
2023-04-19T08:43:16.191Z,3.00
2023-04-19T08:46:16.205Z,1.50
2023-04-19T08:47:23.557Z,1.60
2023-04-19T08:48:16.235Z,4.50
2023-04-19T08:49:14.412Z,5.80
2023-04-19T08:50:28.356Z,2.80
2023-04-19T08:51:16.140Z,2.20
2023-04-19T08:52:14.117Z,2.50
2023-04-19T08:53:24.917Z,2.60
2023-04-19T08:54:16.116Z,1.50
2023-04-19T08:55:14.119Z,3.80
2023-04-19T08:56:21.195Z,3.20
2023-04-19T08:57:16.073Z,2.50
2023-04-19T08:58:28.495Z,1.70
2023-04-19T08:59:18.565Z,1.70
2023-04-19T09:00:15.079Z,3.50
2023-04-19T09:01:26.152Z,2.70
2023-04-19T09:02:16.182Z,2.40
2023-04-19T09:03:14.188Z,1.90
2023-04-19T09:05:15.286Z,2.80
2023-04-19T09:06:14.140Z,3.60
2023-04-19T09:07:13.995Z,2.60
2023-04-19T09:08:14.408Z,1.80
2023-04-19T09:09:28.448Z,2.10
2023-04-19T09:10:15.996Z,1.40
2023-04-19T09:11:13.971Z,3.30
2023-04-19T09:12:13.952Z,3.80
2023-04-19T09:13:13.954Z,1.50
2023-04-19T09:14:13.949Z,2.00
2023-04-19T09:15:13.957Z,2.70
2023-04-19T09:16:13.988Z,3.00
2023-04-19T09:17:14.882Z,3.50
2023-04-19T09:18:13.916Z,1.60
2023-04-19T09:20:14.920Z,1.80
2023-04-19T09:21:13.884Z,1.80
2023-04-19T09:22:13.910Z,3.10
2023-04-19T09:23:13.870Z,3.30
2023-04-19T09:24:14.196Z,2.70
2023-04-19T09:25:41.461Z,2.30
2023-04-19T09:26:22.978Z,2.90
2023-04-19T09:27:15.834Z,3.80
2023-04-19T09:28:13.818Z,2.70
2023-04-19T09:29:13.933Z,2.20
2023-04-19T09:30:21.016Z,2.30
2023-04-19T09:32:15.830Z,3.50
2023-04-19T09:33:13.893Z,2.30
2023-04-19T09:34:13.966Z,3.00
2023-04-19T09:35:13.796Z,4.20
2023-04-19T09:36:14.667Z,2.60
2023-04-19T09:37:25.016Z,3.00
2023-04-19T09:38:15.741Z,2.60
2023-04-19T09:39:13.882Z,1.50
2023-04-19T09:40:13.757Z,3.20
2023-04-19T09:41:13.713Z,3.60
2023-04-19T09:42:14.672Z,2.00
2023-04-19T09:46:15.477Z,2.50
2023-04-19T09:47:13.689Z,2.30
2023-04-19T09:48:13.686Z,2.20
2023-04-19T09:49:23.089Z,3.00
2023-04-19T09:50:24.021Z,3.80
2023-04-19T09:51:15.780Z,3.20
2023-04-19T09:52:14.662Z,2.80
2023-04-19T09:53:13.629Z,3.40
2023-04-19T09:54:13.616Z,3.30
2023-04-19T09:55:24.917Z,2.90
2023-04-19T09:56:15.618Z,2.10
2023-04-19T09:57:13.594Z,3.40
2023-04-19T09:58:13.582Z,3.50
2023-04-19T09:59:20.886Z,4.50
2023-04-19T10:00:15.594Z,2.10
2023-04-19T10:01:15.864Z,4.40
2023-04-19T10:02:14.602Z,1.90
2023-04-19T10:03:13.648Z,2.00
2023-04-19T10:04:24.119Z,4.10
2023-04-19T10:05:20.422Z,4.30
2023-04-19T10:06:31.732Z,2.50
2023-04-19T10:08:14.544Z,1.90
2023-04-19T10:09:13.632Z,3.20
2023-04-19T10:10:20.413Z,2.40
2023-04-19T10:11:15.486Z,3.40
2023-04-19T10:12:31.087Z,2.60
2023-04-19T10:13:19.899Z,4.60
2023-04-19T10:14:15.468Z,3.60
2023-04-19T10:15:13.514Z,3.70
2023-04-19T10:16:19.602Z,4.40
2023-04-19T10:17:15.493Z,3.30
2023-04-19T10:18:13.434Z,3.80
2023-04-19T10:19:13.625Z,4.10
2023-04-19T10:20:13.439Z,3.40
2023-04-19T10:21:13.415Z,3.30
2023-04-19T10:22:13.403Z,4.60
2023-04-19T10:23:13.387Z,3.70
2023-04-19T10:24:13.378Z,4.50
2023-04-19T10:25:13.490Z,2.50
2023-04-19T10:26:13.366Z,2.10
2023-04-19T10:27:13.360Z,1.70
2023-04-19T10:28:13.354Z,2.20
2023-04-19T10:29:13.680Z,2.30
2023-04-19T10:30:13.361Z,3.40
2023-04-19T10:31:13.373Z,2.90
2023-04-19T10:32:13.354Z,3.00
2023-04-19T10:33:13.317Z,2.40
2023-04-19T10:34:13.300Z,3.80
2023-04-19T10:35:14.623Z,3.00
2023-04-19T10:36:13.296Z,5.40
2023-04-19T10:37:13.282Z,3.50
2023-04-19T10:38:13.317Z,1.90
2023-04-19T10:39:13.351Z,2.20
2023-04-19T10:40:13.284Z,1.80
2023-04-19T10:41:16.436Z,4.20
2023-04-19T10:42:14.248Z,2.50
2023-04-19T10:43:13.237Z,3.40
2023-04-19T10:44:13.243Z,1.80
2023-04-19T10:45:13.244Z,1.90
2023-04-19T10:46:13.253Z,1.70
2023-04-19T10:47:14.616Z,3.10
2023-04-19T10:48:13.196Z,3.10
2023-04-19T10:49:13.208Z,1.50
2023-04-19T10:50:13.266Z,2.20
2023-04-19T10:51:13.186Z,4.10
2023-04-19T10:52:13.163Z,2.60
2023-04-19T10:53:14.196Z,2.80
2023-04-19T10:54:13.151Z,2.40
2023-04-19T10:55:13.172Z,2.60
2023-04-19T10:56:13.128Z,2.50
2023-04-19T10:57:13.126Z,3.70
2023-04-19T10:58:13.123Z,3.30
2023-04-19T10:59:13.183Z,4.20
2023-04-19T11:00:13.163Z,3.90
2023-04-19T11:01:13.184Z,2.60
2023-04-19T11:02:13.148Z,4.40
2023-04-19T11:03:13.186Z,4.30
2023-04-19T11:04:13.136Z,2.80
2023-04-19T11:05:13.062Z,2.90
2023-04-19T11:06:13.084Z,2.70
2023-04-19T11:07:13.048Z,2.00
2023-04-19T11:08:13.033Z,4.70
2023-04-19T11:09:13.105Z,4.80
2023-04-19T11:10:13.221Z,1.80
2023-04-19T11:11:13.043Z,3.50
2023-04-19T11:12:13.007Z,2.10
2023-04-19T11:13:12.993Z,4.40
2023-04-19T11:14:13.050Z,2.00
2023-04-19T11:15:12.978Z,2.30
2023-04-19T11:16:13.051Z,2.60
2023-04-19T11:17:13.005Z,2.60
2023-04-19T11:18:13.365Z,4.80
2023-04-19T11:19:14.158Z,4.40
2023-04-19T11:20:12.944Z,2.80
2023-04-19T11:21:12.957Z,3.50
2023-04-19T11:22:12.928Z,2.50
2023-04-19T11:23:12.918Z,3.50
2023-04-19T11:24:12.917Z,2.40
2023-04-19T11:25:12.910Z,7.00
2023-04-19T11:26:12.936Z,2.80
2023-04-19T11:27:12.889Z,3.90
2023-04-19T11:28:12.875Z,1.80
2023-04-19T11:29:12.890Z,2.10
2023-04-19T11:30:12.879Z,3.40
2023-04-19T11:31:12.943Z,3.00
2023-04-19T11:32:12.849Z,2.10
2023-04-19T11:33:13.057Z,7.10
2023-04-19T11:34:12.846Z,2.80
2023-04-19T11:35:12.822Z,5.20
2023-04-19T11:36:12.808Z,3.80
2023-04-19T11:37:12.832Z,2.60
2023-04-19T11:38:12.787Z,1.60
2023-04-19T11:39:12.780Z,2.80
2023-04-19T11:40:12.776Z,2.30
2023-04-19T11:41:12.770Z,4.80
2023-04-19T11:42:12.791Z,2.90
2023-04-19T11:43:12.751Z,2.60
2023-04-19T11:44:12.736Z,2.70
2023-04-19T11:45:25.826Z,3.40
2023-04-19T11:46:14.791Z,3.60
2023-04-19T11:47:13.743Z,3.50
2023-04-19T11:48:12.766Z,2.70
2023-04-19T11:49:12.746Z,1.50
2023-04-19T11:50:12.696Z,2.10
2023-04-19T11:51:12.685Z,5.40
2023-04-19T11:52:12.717Z,3.00
2023-04-19T11:53:12.678Z,3.40
2023-04-19T11:54:12.675Z,3.30
2023-04-19T11:55:12.666Z,3.20
2023-04-19T11:56:12.657Z,3.60
2023-04-19T11:57:12.671Z,3.20
2023-04-19T11:58:12.645Z,5.20
2023-04-19T11:59:12.633Z,4.00
2023-04-19T12:00:12.661Z,3.90
2023-04-19T12:01:12.606Z,2.70
2023-04-19T12:02:12.667Z,2.80
2023-04-19T12:03:12.739Z,2.70
2023-04-19T12:04:12.781Z,3.50
2023-04-19T12:05:12.936Z,2.80
2023-04-19T12:06:12.600Z,4.40
2023-04-19T12:07:12.585Z,2.30
2023-04-19T12:08:12.557Z,3.60
2023-04-19T12:09:12.544Z,4.30
2023-04-19T12:10:12.536Z,2.60
2023-04-19T12:11:12.527Z,2.80
2023-04-19T12:12:12.547Z,2.90
2023-04-19T12:13:12.514Z,3.60
2023-04-19T12:14:12.504Z,2.60
2023-04-19T12:15:12.495Z,4.50
2023-04-19T12:16:12.526Z,3.80
2023-04-19T12:17:12.521Z,3.40
2023-04-19T12:18:12.496Z,4.00
2023-04-19T12:19:12.469Z,2.70
2023-04-19T12:20:12.453Z,2.50
2023-04-19T12:21:12.491Z,7.50
2023-04-19T12:22:12.466Z,3.00
2023-04-19T12:23:12.428Z,3.30
2023-04-19T12:24:12.432Z,3.50
2023-04-19T12:25:12.423Z,2.80
2023-04-19T12:26:12.411Z,4.30
2023-04-19T12:27:12.419Z,4.00
2023-04-19T12:28:12.428Z,3.30
2023-04-19T12:29:12.379Z,2.60
2023-04-19T12:30:12.374Z,3.50
2023-04-19T12:31:12.365Z,3.70
2023-04-19T12:32:12.408Z,2.90
2023-04-19T12:33:12.374Z,5.00
2023-04-19T12:34:12.342Z,4.40
2023-04-19T12:35:12.354Z,3.50
2023-04-19T12:36:12.332Z,3.80
2023-04-19T12:37:12.329Z,5.20
2023-04-19T12:38:12.339Z,3.40
2023-04-19T12:39:12.306Z,4.10
2023-04-19T12:40:12.298Z,2.60
2023-04-19T12:41:12.291Z,3.30
2023-04-19T12:42:12.281Z,4.00
2023-04-19T12:43:12.296Z,3.00
2023-04-19T12:44:12.284Z,3.40
2023-04-19T12:45:12.257Z,2.40
2023-04-19T12:46:12.272Z,2.60
2023-04-19T12:47:12.242Z,3.70
2023-04-19T12:48:12.267Z,4.20
2023-04-19T12:49:12.220Z,3.80
2023-04-19T12:50:12.228Z,4.00
2023-04-19T12:51:12.208Z,2.80
2023-04-19T12:52:12.216Z,3.00
2023-04-19T12:53:12.278Z,3.70
2023-04-19T12:54:12.186Z,3.40
2023-04-19T12:55:12.177Z,5.50
2023-04-19T12:56:12.169Z,3.70
2023-04-19T12:57:12.175Z,4.60
2023-04-19T12:58:12.180Z,2.70
2023-04-19T12:59:12.150Z,4.70
2023-04-19T13:00:12.143Z,2.50
2023-04-19T13:01:12.172Z,3.00
2023-04-19T13:02:12.180Z,4.10
2023-04-19T13:03:12.251Z,3.50
2023-04-19T13:04:12.435Z,4.00
2023-04-19T13:05:12.108Z,3.30
2023-04-19T13:06:12.096Z,3.10
2023-04-19T13:07:12.083Z,3.90
2023-04-19T13:08:12.091Z,3.10
2023-04-19T13:09:14.910Z,3.50
2023-04-19T13:10:13.063Z,2.90
2023-04-19T13:11:12.045Z,4.00
2023-04-19T13:12:12.041Z,5.60
2023-04-19T13:13:12.059Z,3.50
2023-04-19T13:14:12.023Z,5.20
2023-04-19T13:15:12.038Z,3.80
2023-04-19T13:16:12.051Z,2.50
2023-04-19T13:17:12.002Z,7.10
2023-04-19T13:18:12.019Z,3.50
2023-04-19T13:19:11.998Z,2.90
2023-04-19T13:20:11.983Z,3.20
2023-04-19T13:21:11.976Z,3.40
2023-04-19T13:22:11.960Z,3.70